sensor_id;sensor_type;location;lat;lon;timestamp;temperature;humidity
19728;DHT22;10015;52.530;13.390;2023-05-07T00:00:41;10.40;99.90
19728;DHT22;10015;52.530;13.390;2023-05-07T00:03:08;10.40;99.90
19728;DHT22;10015;52.530;13.390;2023-05-07T00:05:33;10.40;99.90
19728;DHT22;10015;52.530;13.390;2023-05-07T00:07:59;10.40;99.90
19728;DHT22;10015;52.530;13.390;2023-05-07T00:10:26;10.40;99.90
19728;DHT22;10015;52.530;13.390;2023-05-07T00:12:52;10.30;99.90
19728;DHT22;10015;52.530;13.390;2023-05-07T00:15:17;10.30;99.90
19728;DHT22;10015;52.530;13.390;2023-05-07T00:17:43;10.30;99.90
19728;DHT22;10015;52.530;13.390;2023-05-07T00:20:09;10.30;99.90
19728;DHT22;10015;52.530;13.390;2023-05-07T00:22:35;10.30;99.90
19728;DHT22;10015;52.530;13.390;2023-05-07T00:25:01;10.30;99.90
19728;DHT22;10015;52.530;13.390;2023-05-07T00:27:27;10.20;99.90
19728;DHT22;10015;52.530;13.390;2023-05-07T00:29:53;10.30;99.90
19728;DHT22;10015;52.530;13.390;2023-05-07T00:32:19;10.20;99.90
19728;DHT22;10015;52.530;13.390;2023-05-07T00:34:46;10.20;99.90
19728;DHT22;10015;52.530;13.390;2023-05-07T00:37:11;10.20;99.90
19728;DHT22;10015;52.530;13.390;2023-05-07T00:39:37;10.20;99.90
19728;DHT22;10015;52.530;13.390;2023-05-07T00:42:03;10.30;99.90
19728;DHT22;10015;52.530;13.390;2023-05-07T00:44:29;10.40;99.90
19728;DHT22;10015;52.530;13.390;2023-05-07T00:46:57;10.30;99.90
19728;DHT22;10015;52.530;13.390;2023-05-07T00:49:31;10.40;99.90
19728;DHT22;10015;52.530;13.390;2023-05-07T00:52:01;10.40;99.90
19728;DHT22;10015;52.530;13.390;2023-05-07T00:54:27;10.40;99.90
19728;DHT22;10015;52.530;13.390;2023-05-07T00:56:54;10.40;99.90
19728;DHT22;10015;52.530;13.390;2023-05-07T00:59:20;10.40;99.90
19728;DHT22;10015;52.530;13.390;2023-05-07T01:01:46;10.40;99.90
19728;DHT22;10015;52.530;13.390;2023-05-07T01:04:12;10.40;99.90
19728;DHT22;10015;52.530;13.390;2023-05-07T01:06:38;10.40;99.90
19728;DHT22;10015;52.530;13.390;2023-05-07T01:09:05;10.40;99.90
19728;DHT22;10015;52.530;13.390;2023-05-07T01:11:31;10.30;99.90
19728;DHT22;10015;52.530;13.390;2023-05-07T01:13:59;10.30;99.90
19728;DHT22;10015;52.530;13.390;2023-05-07T01:16:25;10.20;99.90
19728;DHT22;10015;52.530;13.390;2023-05-07T01:18:52;10.10;99.90
19728;DHT22;10015;52.530;13.390;2023-05-07T01:21:18;10.10;99.90
19728;DHT22;10015;52.530;13.390;2023-05-07T01:23:47;10.00;99.90
19728;DHT22;10015;52.530;13.390;2023-05-07T01:26:13;10.00;99.90
19728;DHT22;10015;52.530;13.390;2023-05-07T01:28:43;10.10;99.90
19728;DHT22;10015;52.530;13.390;2023-05-07T01:31:09;10.00;99.90
19728;DHT22;10015;52.530;13.390;2023-05-07T01:33:36;10.10;99.90
19728;DHT22;10015;52.530;13.390;2023-05-07T01:36:05;10.20;99.90
19728;DHT22;10015;52.530;13.390;2023-05-07T01:38:33;10.20;99.90
19728;DHT22;10015;52.530;13.390;2023-05-07T01:40:59;10.20;99.90
19728;DHT22;10015;52.530;13.390;2023-05-07T01:43:26;10.20;99.90
19728;DHT22;10015;52.530;13.390;2023-05-07T01:45:52;10.20;99.90
19728;DHT22;10015;52.530;13.390;2023-05-07T01:48:18;10.20;99.90
19728;DHT22;10015;52.530;13.390;2023-05-07T01:50:44;10.20;99.90
19728;DHT22;10015;52.530;13.390;2023-05-07T01:53:11;10.10;99.90
19728;DHT22;10015;52.530;13.390;2023-05-07T01:55:36;10.20;99.90
19728;DHT22;10015;52.530;13.390;2023-05-07T01:58:04;10.20;99.90
19728;DHT22;10015;52.530;13.390;2023-05-07T02:00:30;10.30;99.90
19728;DHT22;10015;52.530;13.390;2023-05-07T02:02:56;10.40;99.90
19728;DHT22;10015;52.530;13.390;2023-05-07T02:05:30;10.40;99.90
19728;DHT22;10015;52.530;13.390;2023-05-07T02:08:08;10.40;99.90
19728;DHT22;10015;52.530;13.390;2023-05-07T02:10:34;10.30;99.90
19728;DHT22;10015;52.530;13.390;2023-05-07T02:13:01;10.30;99.90
19728;DHT22;10015;52.530;13.390;2023-05-07T02:15:27;10.40;99.90
19728;DHT22;10015;52.530;13.390;2023-05-07T02:18:05;10.30;99.90
19728;DHT22;10015;52.530;13.390;2023-05-07T02:20:32;10.30;99.90
19728;DHT22;10015;52.530;13.390;2023-05-07T02:22:58;10.20;99.90
19728;DHT22;10015;52.530;13.390;2023-05-07T02:25:26;10.20;99.90
19728;DHT22;10015;52.530;13.390;2023-05-07T02:27:52;10.20;99.90
19728;DHT22;10015;52.530;13.390;2023-05-07T02:30:21;10.20;99.90
19728;DHT22;10015;52.530;13.390;2023-05-07T02:32:50;10.30;99.90
19728;DHT22;10015;52.530;13.390;2023-05-07T02:35:16;10.30;99.90
19728;DHT22;10015;52.530;13.390;2023-05-07T02:37:42;10.20;99.90
19728;DHT22;10015;52.530;13.390;2023-05-07T02:40:08;10.20;99.90
19728;DHT22;10015;52.530;13.390;2023-05-07T02:42:34;10.10;99.90
19728;DHT22;10015;52.530;13.390;2023-05-07T02:45:01;10.10;99.90
19728;DHT22;10015;52.530;13.390;2023-05-07T02:47:27;10.20;99.90
19728;DHT22;10015;52.530;13.390;2023-05-07T02:49:55;10.30;99.90
19728;DHT22;10015;52.530;13.390;2023-05-07T02:52:21;10.20;99.90
19728;DHT22;10015;52.530;13.390;2023-05-07T02:54:47;10.20;99.90
19728;DHT22;10015;52.530;13.390;2023-05-07T02:57:13;10.20;99.90
19728;DHT22;10015;52.530;13.390;2023-05-07T02:59:39;10.20;99.90
19728;DHT22;10015;52.530;13.390;2023-05-07T03:02:05;10.10;99.90
19728;DHT22;10015;52.530;13.390;2023-05-07T03:04:31;10.10;99.90
19728;DHT22;10015;52.530;13.390;2023-05-07T03:06:57;10.10;99.90
19728;DHT22;10015;52.530;13.390;2023-05-07T03:09:23;10.10;99.90
19728;DHT22;10015;52.530;13.390;2023-05-07T03:11:49;10.20;99.90
19728;DHT22;10015;52.530;13.390;2023-05-07T03:14:15;10.20;99.90
19728;DHT22;10015;52.530;13.390;2023-05-07T03:16:41;10.10;99.90
19728;DHT22;10015;52.530;13.390;2023-05-07T03:19:07;10.20;99.90
19728;DHT22;10015;52.530;13.390;2023-05-07T03:21:33;10.20;99.90
19728;DHT22;10015;52.530;13.390;2023-05-07T03:24:00;10.20;99.90
19728;DHT22;10015;52.530;13.390;2023-05-07T03:26:26;10.30;99.90
19728;DHT22;10015;52.530;13.390;2023-05-07T03:28:52;10.30;99.90
19728;DHT22;10015;52.530;13.390;2023-05-07T03:31:18;10.30;99.90
19728;DHT22;10015;52.530;13.390;2023-05-07T03:33:52;10.30;99.90
19728;DHT22;10015;52.530;13.390;2023-05-07T03:36:18;10.30;99.90
19728;DHT22;10015;52.530;13.390;2023-05-07T03:38:44;10.30;99.90
19728;DHT22;10015;52.530;13.390;2023-05-07T03:41:10;10.30;99.90
19728;DHT22;10015;52.530;13.390;2023-05-07T03:43:36;10.30;99.90
19728;DHT22;10015;52.530;13.390;2023-05-07T03:46:06;10.20;99.90
19728;DHT22;10015;52.530;13.390;2023-05-07T03:48:33;10.30;99.90
19728;DHT22;10015;52.530;13.390;2023-05-07T03:50:59;10.20;99.90
19728;DHT22;10015;52.530;13.390;2023-05-07T03:53:29;10.20;99.90
19728;DHT22;10015;52.530;13.390;2023-05-07T03:55:55;10.20;99.90
19728;DHT22;10015;52.530;13.390;2023-05-07T03:58:21;10.30;99.90
19728;DHT22;10015;52.530;13.390;2023-05-07T04:00:47;10.20;99.90
19728;DHT22;10015;52.530;13.390;2023-05-07T04:03:22;10.20;99.90
19728;DHT22;10015;52.530;13.390;2023-05-07T04:05:48;10.20;99.90
19728;DHT22;10015;52.530;13.390;2023-05-07T04:08:14;10.20;99.90
19728;DHT22;10015;52.530;13.390;2023-05-07T04:10:45;10.20;99.90
19728;DHT22;10015;52.530;13.390;2023-05-07T04:13:12;10.20;99.90
19728;DHT22;10015;52.530;13.390;2023-05-07T04:15:38;10.20;99.90
19728;DHT22;10015;52.530;13.390;2023-05-07T04:18:07;10.20;99.90
19728;DHT22;10015;52.530;13.390;2023-05-07T04:20:34;10.10;99.90
19728;DHT22;10015;52.530;13.390;2023-05-07T04:23:03;10.00;99.90
19728;DHT22;10015;52.530;13.390;2023-05-07T04:25:30;9.90;99.90
19728;DHT22;10015;52.530;13.390;2023-05-07T04:28:11;9.90;99.90
19728;DHT22;10015;52.530;13.390;2023-05-07T04:30:38;9.90;99.90
19728;DHT22;10015;52.530;13.390;2023-05-07T04:33:06;10.00;99.90
19728;DHT22;10015;52.530;13.390;2023-05-07T04:35:33;10.10;99.90
19728;DHT22;10015;52.530;13.390;2023-05-07T04:37:59;10.10;99.90
19728;DHT22;10015;52.530;13.390;2023-05-07T04:40:25;10.10;99.90
19728;DHT22;10015;52.530;13.390;2023-05-07T04:42:51;10.00;99.90
19728;DHT22;10015;52.530;13.390;2023-05-07T04:45:19;10.10;99.90
19728;DHT22;10015;52.530;13.390;2023-05-07T04:47:46;10.10;99.90
19728;DHT22;10015;52.530;13.390;2023-05-07T04:50:12;10.20;99.90
19728;DHT22;10015;52.530;13.390;2023-05-07T04:52:39;10.20;99.90
19728;DHT22;10015;52.530;13.390;2023-05-07T04:55:05;10.30;99.90
19728;DHT22;10015;52.530;13.390;2023-05-07T04:57:36;10.30;99.90
19728;DHT22;10015;52.530;13.390;2023-05-07T05:00:03;10.30;99.90
19728;DHT22;10015;52.530;13.390;2023-05-07T05:02:31;10.20;99.90
19728;DHT22;10015;52.530;13.390;2023-05-07T05:04:58;10.10;99.90
19728;DHT22;10015;52.530;13.390;2023-05-07T05:07:24;10.20;99.90
19728;DHT22;10015;52.530;13.390;2023-05-07T05:09:51;10.10;99.90
19728;DHT22;10015;52.530;13.390;2023-05-07T05:12:17;10.10;99.90
19728;DHT22;10015;52.530;13.390;2023-05-07T05:14:44;10.10;99.90
19728;DHT22;10015;52.530;13.390;2023-05-07T05:17:10;10.10;99.90
19728;DHT22;10015;52.530;13.390;2023-05-07T05:19:36;10.20;99.90
19728;DHT22;10015;52.530;13.390;2023-05-07T05:22:02;10.20;99.90
19728;DHT22;10015;52.530;13.390;2023-05-07T05:24:30;10.30;99.90
19728;DHT22;10015;52.530;13.390;2023-05-07T05:26:57;10.30;99.90
19728;DHT22;10015;52.530;13.390;2023-05-07T05:29:24;10.30;99.90
19728;DHT22;10015;52.530;13.390;2023-05-07T05:31:50;10.30;99.90
19728;DHT22;10015;52.530;13.390;2023-05-07T05:34:17;10.30;99.90
19728;DHT22;10015;52.530;13.390;2023-05-07T05:36:45;10.30;99.90
19728;DHT22;10015;52.530;13.390;2023-05-07T05:39:12;10.30;99.90
19728;DHT22;10015;52.530;13.390;2023-05-07T05:41:40;10.20;99.90
19728;DHT22;10015;52.530;13.390;2023-05-07T05:44:06;10.20;99.90
19728;DHT22;10015;52.530;13.390;2023-05-07T05:46:32;10.20;99.90
19728;DHT22;10015;52.530;13.390;2023-05-07T05:48:58;10.30;99.90
19728;DHT22;10015;52.530;13.390;2023-05-07T05:51:24;10.30;99.90
19728;DHT22;10015;52.530;13.390;2023-05-07T05:53:51;10.40;99.90
19728;DHT22;10015;52.530;13.390;2023-05-07T05:56:20;10.50;99.90
19728;DHT22;10015;52.530;13.390;2023-05-07T05:58:46;10.40;99.90
19728;DHT22;10015;52.530;13.390;2023-05-07T06:01:13;10.60;99.90
19728;DHT22;10015;52.530;13.390;2023-05-07T06:03:40;10.30;99.90
19728;DHT22;10015;52.530;13.390;2023-05-07T06:06:11;10.10;99.90
19728;DHT22;10015;52.530;13.390;2023-05-07T06:08:37;10.00;99.90
19728;DHT22;10015;52.530;13.390;2023-05-07T06:11:04;10.00;99.90
19728;DHT22;10015;52.530;13.390;2023-05-07T06:13:32;10.20;99.90
19728;DHT22;10015;52.530;13.390;2023-05-07T06:15:58;10.30;99.90
19728;DHT22;10015;52.530;13.390;2023-05-07T06:18:24;10.30;99.90
19728;DHT22;10015;52.530;13.390;2023-05-07T06:20:51;10.30;99.90
19728;DHT22;10015;52.530;13.390;2023-05-07T06:23:23;10.40;99.90
19728;DHT22;10015;52.530;13.390;2023-05-07T06:25:50;10.60;99.90
19728;DHT22;10015;52.530;13.390;2023-05-07T06:28:17;10.80;99.90
19728;DHT22;10015;52.530;13.390;2023-05-07T06:30:43;10.90;99.90
19728;DHT22;10015;52.530;13.390;2023-05-07T06:33:09;10.80;99.90
19728;DHT22;10015;52.530;13.390;2023-05-07T06:35:35;10.70;99.90
19728;DHT22;10015;52.530;13.390;2023-05-07T06:38:01;10.70;99.90
19728;DHT22;10015;52.530;13.390;2023-05-07T06:40:29;10.80;99.90
19728;DHT22;10015;52.530;13.390;2023-05-07T06:42:55;10.70;99.90
19728;DHT22;10015;52.530;13.390;2023-05-07T06:45:35;10.80;99.90
19728;DHT22;10015;52.530;13.390;2023-05-07T06:48:01;10.70;99.90
19728;DHT22;10015;52.530;13.390;2023-05-07T06:50:30;10.70;99.90
19728;DHT22;10015;52.530;13.390;2023-05-07T06:52:57;10.70;99.90
19728;DHT22;10015;52.530;13.390;2023-05-07T06:55:23;10.90;99.90
19728;DHT22;10015;52.530;13.390;2023-05-07T06:57:49;10.90;99.90
19728;DHT22;10015;52.530;13.390;2023-05-07T07:00:16;10.70;99.90
19728;DHT22;10015;52.530;13.390;2023-05-07T07:02:53;10.80;99.90
19728;DHT22;10015;52.530;13.390;2023-05-07T07:05:22;11.00;99.90
19728;DHT22;10015;52.530;13.390;2023-05-07T07:07:48;11.10;99.90
19728;DHT22;10015;52.530;13.390;2023-05-07T07:10:19;11.50;99.90
19728;DHT22;10015;52.530;13.390;2023-05-07T07:12:45;11.70;99.90
19728;DHT22;10015;52.530;13.390;2023-05-07T07:15:11;11.80;99.90
19728;DHT22;10015;52.530;13.390;2023-05-07T07:17:38;11.90;99.90
19728;DHT22;10015;52.530;13.390;2023-05-07T07:20:04;12.10;99.90
19728;DHT22;10015;52.530;13.390;2023-05-07T07:22:30;12.30;99.90
19728;DHT22;10015;52.530;13.390;2023-05-07T07:24:56;12.60;99.90
19728;DHT22;10015;52.530;13.390;2023-05-07T07:27:23;12.90;99.90
19728;DHT22;10015;52.530;13.390;2023-05-07T07:29:49;13.20;99.90
19728;DHT22;10015;52.530;13.390;2023-05-07T07:32:15;13.50;99.90
19728;DHT22;10015;52.530;13.390;2023-05-07T07:34:42;13.70;99.90
19728;DHT22;10015;52.530;13.390;2023-05-07T07:37:08;13.70;99.90
19728;DHT22;10015;52.530;13.390;2023-05-07T07:39:36;13.90;99.90
19728;DHT22;10015;52.530;13.390;2023-05-07T07:42:04;13.70;99.90
19728;DHT22;10015;52.530;13.390;2023-05-07T07:44:30;13.50;99.90
19728;DHT22;10015;52.530;13.390;2023-05-07T07:47:01;13.70;99.90
19728;DHT22;10015;52.530;13.390;2023-05-07T07:49:28;13.70;99.90
19728;DHT22;10015;52.530;13.390;2023-05-07T07:51:55;13.80;99.90
19728;DHT22;10015;52.530;13.390;2023-05-07T07:54:24;14.60;99.90
19728;DHT22;10015;52.530;13.390;2023-05-07T07:56:50;14.90;99.90
19728;DHT22;10015;52.530;13.390;2023-05-07T07:59:17;15.10;99.90
19728;DHT22;10015;52.530;13.390;2023-05-07T08:01:45;15.20;99.90
19728;DHT22;10015;52.530;13.390;2023-05-07T08:04:11;15.00;99.90
19728;DHT22;10015;52.530;13.390;2023-05-07T08:06:39;14.90;99.90
19728;DHT22;10015;52.530;13.390;2023-05-07T08:09:08;14.80;99.90
19728;DHT22;10015;52.530;13.390;2023-05-07T08:11:34;15.00;99.90
19728;DHT22;10015;52.530;13.390;2023-05-07T08:14:00;15.00;99.90
19728;DHT22;10015;52.530;13.390;2023-05-07T08:16:26;15.10;99.90
19728;DHT22;10015;52.530;13.390;2023-05-07T08:18:53;15.20;99.90
19728;DHT22;10015;52.530;13.390;2023-05-07T08:21:19;15.10;99.90
19728;DHT22;10015;52.530;13.390;2023-05-07T08:23:45;15.10;99.90
19728;DHT22;10015;52.530;13.390;2023-05-07T08:26:11;14.90;99.90
19728;DHT22;10015;52.530;13.390;2023-05-07T08:28:37;15.20;99.90
19728;DHT22;10015;52.530;13.390;2023-05-07T08:31:03;15.20;99.90
19728;DHT22;10015;52.530;13.390;2023-05-07T08:33:33;15.00;99.90
19728;DHT22;10015;52.530;13.390;2023-05-07T08:35:59;15.10;99.90
19728;DHT22;10015;52.530;13.390;2023-05-07T08:38:26;15.20;99.90
19728;DHT22;10015;52.530;13.390;2023-05-07T08:40:52;15.40;99.90
19728;DHT22;10015;52.530;13.390;2023-05-07T08:43:20;15.30;99.90
19728;DHT22;10015;52.530;13.390;2023-05-07T08:45:49;15.30;99.90
19728;DHT22;10015;52.530;13.390;2023-05-07T08:48:21;15.60;99.90
19728;DHT22;10015;52.530;13.390;2023-05-07T08:50:54;15.70;99.90
19728;DHT22;10015;52.530;13.390;2023-05-07T08:53:21;15.90;99.90
19728;DHT22;10015;52.530;13.390;2023-05-07T08:55:48;16.00;99.90
19728;DHT22;10015;52.530;13.390;2023-05-07T08:58:14;16.20;99.90
19728;DHT22;10015;52.530;13.390;2023-05-07T09:00:41;16.10;99.90
19728;DHT22;10015;52.530;13.390;2023-05-07T09:03:08;16.00;99.90
19728;DHT22;10015;52.530;13.390;2023-05-07T09:05:35;16.00;99.90
19728;DHT22;10015;52.530;13.390;2023-05-07T09:08:02;15.70;99.90
19728;DHT22;10015;52.530;13.390;2023-05-07T09:10:29;15.60;99.90
19728;DHT22;10015;52.530;13.390;2023-05-07T09:12:56;15.40;99.90
19728;DHT22;10015;52.530;13.390;2023-05-07T09:15:22;15.30;99.90
19728;DHT22;10015;52.530;13.390;2023-05-07T09:17:48;15.20;99.90
19728;DHT22;10015;52.530;13.390;2023-05-07T09:20:14;15.40;99.90
19728;DHT22;10015;52.530;13.390;2023-05-07T09:22:40;15.50;99.90
19728;DHT22;10015;52.530;13.390;2023-05-07T09:25:09;15.60;99.90
19728;DHT22;10015;52.530;13.390;2023-05-07T09:27:37;15.80;99.90
19728;DHT22;10015;52.530;13.390;2023-05-07T09:30:05;15.90;99.90
19728;DHT22;10015;52.530;13.390;2023-05-07T09:32:37;15.90;99.90
19728;DHT22;10015;52.530;13.390;2023-05-07T09:35:05;15.80;99.90
19728;DHT22;10015;52.530;13.390;2023-05-07T09:37:32;15.70;99.90
19728;DHT22;10015;52.530;13.390;2023-05-07T09:39:58;16.00;99.90
19728;DHT22;10015;52.530;13.390;2023-05-07T09:42:27;15.90;99.90
19728;DHT22;10015;52.530;13.390;2023-05-07T09:44:56;15.70;99.90
19728;DHT22;10015;52.530;13.390;2023-05-07T09:47:30;15.60;99.90
19728;DHT22;10015;52.530;13.390;2023-05-07T09:49:59;15.80;99.90
19728;DHT22;10015;52.530;13.390;2023-05-07T09:52:28;16.00;99.90
19728;DHT22;10015;52.530;13.390;2023-05-07T09:55:02;16.00;99.90
19728;DHT22;10015;52.530;13.390;2023-05-07T09:57:30;15.90;99.90
19728;DHT22;10015;52.530;13.390;2023-05-07T10:00:02;15.80;99.90
19728;DHT22;10015;52.530;13.390;2023-05-07T10:02:50;15.90;99.90
19728;DHT22;10015;52.530;13.390;2023-05-07T10:05:22;15.80;99.90
19728;DHT22;10015;52.530;13.390;2023-05-07T10:07:49;15.60;99.90
19728;DHT22;10015;52.530;13.390;2023-05-07T10:10:17;15.40;99.90
19728;DHT22;10015;52.530;13.390;2023-05-07T10:12:45;15.30;99.90
19728;DHT22;10015;52.530;13.390;2023-05-07T10:15:21;15.40;99.90
19728;DHT22;10015;52.530;13.390;2023-05-07T10:17:51;15.50;99.90
19728;DHT22;10015;52.530;13.390;2023-05-07T10:20:19;15.40;99.90
19728;DHT22;10015;52.530;13.390;2023-05-07T10:22:48;15.20;99.90
19728;DHT22;10015;52.530;13.390;2023-05-07T10:25:22;14.90;99.90
19728;DHT22;10015;52.530;13.390;2023-05-07T10:27:52;14.80;99.90
19728;DHT22;10015;52.530;13.390;2023-05-07T10:30:38;14.70;99.90
19728;DHT22;10015;52.530;13.390;2023-05-07T10:33:09;14.90;99.90
19728;DHT22;10015;52.530;13.390;2023-05-07T10:35:44;15.10;99.90
19728;DHT22;10015;52.530;13.390;2023-05-07T10:38:11;15.30;99.90
19728;DHT22;10015;52.530;13.390;2023-05-07T10:40:40;15.30;99.90
19728;DHT22;10015;52.530;13.390;2023-05-07T10:43:07;15.10;99.90
19728;DHT22;10015;52.530;13.390;2023-05-07T10:45:39;15.20;99.90
19728;DHT22;10015;52.530;13.390;2023-05-07T10:50:37;15.30;99.90
19728;DHT22;10015;52.530;13.390;2023-05-07T10:55:47;14.90;99.90
19728;DHT22;10015;52.530;13.390;2023-05-07T10:58:25;14.80;99.90
19728;DHT22;10015;52.530;13.390;2023-05-07T11:00:57;14.80;99.90
19728;DHT22;10015;52.530;13.390;2023-05-07T11:03:29;14.70;99.90
19728;DHT22;10015;52.530;13.390;2023-05-07T11:06:10;14.70;99.90
19728;DHT22;10015;52.530;13.390;2023-05-07T11:08:56;14.90;99.90
19728;DHT22;10015;52.530;13.390;2023-05-07T11:11:50;15.20;99.90
19728;DHT22;10015;52.530;13.390;2023-05-07T11:14:45;15.40;99.90
19728;DHT22;10015;52.530;13.390;2023-05-07T11:17:16;15.40;99.90
19728;DHT22;10015;52.530;13.390;2023-05-07T11:19:50;15.20;99.90
19728;DHT22;10015;52.530;13.390;2023-05-07T11:25:07;15.30;99.90
19728;DHT22;10015;52.530;13.390;2023-05-07T11:27:34;15.40;99.90
19728;DHT22;10015;52.530;13.390;2023-05-07T11:30:00;15.60;99.90
19728;DHT22;10015;52.530;13.390;2023-05-07T11:32:31;15.80;99.90
19728;DHT22;10015;52.530;13.390;2023-05-07T11:35:00;16.00;99.90
19728;DHT22;10015;52.530;13.390;2023-05-07T11:37:27;16.10;99.90
19728;DHT22;10015;52.530;13.390;2023-05-07T11:40:03;16.10;99.90
19728;DHT22;10015;52.530;13.390;2023-05-07T11:42:32;16.20;99.90
19728;DHT22;10015;52.530;13.390;2023-05-07T11:44:59;16.30;99.90
19728;DHT22;10015;52.530;13.390;2023-05-07T11:47:26;16.40;99.90
19728;DHT22;10015;52.530;13.390;2023-05-07T11:49:53;16.40;99.90
19728;DHT22;10015;52.530;13.390;2023-05-07T11:52:21;16.30;99.90
19728;DHT22;10015;52.530;13.390;2023-05-07T11:54:52;16.10;99.90
19728;DHT22;10015;52.530;13.390;2023-05-07T11:57:18;16.30;99.90
19728;DHT22;10015;52.530;13.390;2023-05-07T11:59:45;16.20;99.90
19728;DHT22;10015;52.530;13.390;2023-05-07T12:02:17;16.20;99.90
19728;DHT22;10015;52.530;13.390;2023-05-07T12:04:43;16.40;99.90
19728;DHT22;10015;52.530;13.390;2023-05-07T12:07:15;16.60;99.90
19728;DHT22;10015;52.530;13.390;2023-05-07T12:09:42;16.80;99.90
19728;DHT22;10015;52.530;13.390;2023-05-07T12:12:08;16.60;99.90
19728;DHT22;10015;52.530;13.390;2023-05-07T12:14:41;16.70;99.90
19728;DHT22;10015;52.530;13.390;2023-05-07T12:17:09;16.90;99.90
19728;DHT22;10015;52.530;13.390;2023-05-07T12:19:36;16.80;99.90
19728;DHT22;10015;52.530;13.390;2023-05-07T12:22:03;16.80;99.90
19728;DHT22;10015;52.530;13.390;2023-05-07T12:24:41;17.00;99.90
19728;DHT22;10015;52.530;13.390;2023-05-07T12:27:07;17.00;99.90
19728;DHT22;10015;52.530;13.390;2023-05-07T12:29:33;17.20;99.90
19728;DHT22;10015;52.530;13.390;2023-05-07T12:31:59;17.00;99.90
19728;DHT22;10015;52.530;13.390;2023-05-07T12:34:25;17.10;99.90
19728;DHT22;10015;52.530;13.390;2023-05-07T12:36:50;16.80;99.90
19728;DHT22;10015;52.530;13.390;2023-05-07T12:39:16;16.60;99.90
19728;DHT22;10015;52.530;13.390;2023-05-07T12:41:56;16.60;99.90
19728;DHT22;10015;52.530;13.390;2023-05-07T12:44:34;16.40;99.90
19728;DHT22;10015;52.530;13.390;2023-05-07T12:47:03;16.50;99.90
19728;DHT22;10015;52.530;13.390;2023-05-07T12:49:29;16.70;99.90
19728;DHT22;10015;52.530;13.390;2023-05-07T12:51:55;16.90;99.90
19728;DHT22;10015;52.530;13.390;2023-05-07T12:54:32;16.90;99.90
19728;DHT22;10015;52.530;13.390;2023-05-07T12:57:05;16.80;99.90
19728;DHT22;10015;52.530;13.390;2023-05-07T12:59:37;16.70;99.90
19728;DHT22;10015;52.530;13.390;2023-05-07T13:02:04;16.80;99.90
19728;DHT22;10015;52.530;13.390;2023-05-07T13:04:30;16.80;99.90
19728;DHT22;10015;52.530;13.390;2023-05-07T13:06:56;16.80;99.90
19728;DHT22;10015;52.530;13.390;2023-05-07T13:09:21;16.70;99.90
19728;DHT22;10015;52.530;13.390;2023-05-07T13:11:47;16.60;99.90
19728;DHT22;10015;52.530;13.390;2023-05-07T13:14:13;16.60;99.90
19728;DHT22;10015;52.530;13.390;2023-05-07T13:16:42;16.50;99.90
19728;DHT22;10015;52.530;13.390;2023-05-07T13:19:08;16.50;99.90
19728;DHT22;10015;52.530;13.390;2023-05-07T13:21:34;16.60;99.90
19728;DHT22;10015;52.530;13.390;2023-05-07T13:24:00;16.70;99.90
19728;DHT22;10015;52.530;13.390;2023-05-07T13:26:26;16.70;99.90
19728;DHT22;10015;52.530;13.390;2023-05-07T13:28:53;16.80;99.90
19728;DHT22;10015;52.530;13.390;2023-05-07T13:31:19;16.80;99.90
19728;DHT22;10015;52.530;13.390;2023-05-07T13:33:46;16.80;99.90
19728;DHT22;10015;52.530;13.390;2023-05-07T13:36:12;16.70;99.90
19728;DHT22;10015;52.530;13.390;2023-05-07T13:38:41;16.80;99.90
19728;DHT22;10015;52.530;13.390;2023-05-07T13:41:07;16.70;99.90
19728;DHT22;10015;52.530;13.390;2023-05-07T13:43:33;16.70;99.90
19728;DHT22;10015;52.530;13.390;2023-05-07T13:46:02;16.70;99.90
19728;DHT22;10015;52.530;13.390;2023-05-07T13:48:28;16.60;99.90
19728;DHT22;10015;52.530;13.390;2023-05-07T13:50:54;16.50;99.90
19728;DHT22;10015;52.530;13.390;2023-05-07T13:53:20;16.40;99.90
19728;DHT22;10015;52.530;13.390;2023-05-07T13:55:46;16.30;99.90
19728;DHT22;10015;52.530;13.390;2023-05-07T13:58:13;16.20;99.90
19728;DHT22;10015;52.530;13.390;2023-05-07T14:00:39;16.10;99.90
19728;DHT22;10015;52.530;13.390;2023-05-07T14:03:05;16.10;99.90
19728;DHT22;10015;52.530;13.390;2023-05-07T14:05:31;16.20;99.90
19728;DHT22;10015;52.530;13.390;2023-05-07T14:07:58;16.20;99.90
19728;DHT22;10015;52.530;13.390;2023-05-07T14:10:24;16.30;99.90
19728;DHT22;10015;52.530;13.390;2023-05-07T14:12:50;16.30;99.90
19728;DHT22;10015;52.530;13.390;2023-05-07T14:15:16;16.40;99.90
19728;DHT22;10015;52.530;13.390;2023-05-07T14:17:43;16.30;99.90
19728;DHT22;10015;52.530;13.390;2023-05-07T14:20:09;16.30;99.90
19728;DHT22;10015;52.530;13.390;2023-05-07T14:22:38;16.10;99.90
19728;DHT22;10015;52.530;13.390;2023-05-07T14:25:04;15.90;99.90
19728;DHT22;10015;52.530;13.390;2023-05-07T14:27:30;15.90;99.90
19728;DHT22;10015;52.530;13.390;2023-05-07T14:29:56;15.90;99.90
19728;DHT22;10015;52.530;13.390;2023-05-07T14:32:22;15.90;99.90
19728;DHT22;10015;52.530;13.390;2023-05-07T14:34:48;15.90;99.90
19728;DHT22;10015;52.530;13.390;2023-05-07T14:37:14;16.00;99.90
19728;DHT22;10015;52.530;13.390;2023-05-07T14:39:41;15.90;99.90
19728;DHT22;10015;52.530;13.390;2023-05-07T14:42:07;15.90;99.90
19728;DHT22;10015;52.530;13.390;2023-05-07T14:44:36;16.00;99.90
19728;DHT22;10015;52.530;13.390;2023-05-07T14:47:02;16.20;99.90
19728;DHT22;10015;52.530;13.390;2023-05-07T14:49:28;16.30;99.90
19728;DHT22;10015;52.530;13.390;2023-05-07T14:51:57;16.30;99.90
19728;DHT22;10015;52.530;13.390;2023-05-07T14:54:23;16.20;99.90
19728;DHT22;10015;52.530;13.390;2023-05-07T14:56:49;16.00;99.90
19728;DHT22;10015;52.530;13.390;2023-05-07T14:59:15;15.80;99.90
19728;DHT22;10015;52.530;13.390;2023-05-07T15:01:44;15.80;99.90
19728;DHT22;10015;52.530;13.390;2023-05-07T15:04:11;15.90;99.90
19728;DHT22;10015;52.530;13.390;2023-05-07T15:06:37;16.10;99.90
19728;DHT22;10015;52.530;13.390;2023-05-07T15:09:03;16.40;99.90
19728;DHT22;10015;52.530;13.390;2023-05-07T15:11:29;16.60;99.90
19728;DHT22;10015;52.530;13.390;2023-05-07T15:13:55;16.80;99.90
19728;DHT22;10015;52.530;13.390;2023-05-07T15:16:21;17.00;99.90
19728;DHT22;10015;52.530;13.390;2023-05-07T15:18:47;16.90;99.90
19728;DHT22;10015;52.530;13.390;2023-05-07T15:21:13;16.90;99.90
19728;DHT22;10015;52.530;13.390;2023-05-07T15:23:39;16.80;99.90
19728;DHT22;10015;52.530;13.390;2023-05-07T15:26:07;16.80;99.90